createdAt,value
2023-04-02T00:00:36.677Z,62.48
2023-04-02T00:03:27.837Z,62.80
2023-04-02T00:06:34.512Z,62.71
2023-04-02T00:09:33.005Z,62.60
2023-04-02T00:12:57.862Z,62.52
2023-04-02T00:18:59.369Z,62.27
2023-04-02T00:22:08.096Z,62.61
2023-04-02T00:25:02.693Z,62.45
2023-04-02T00:31:21.972Z,62.53
2023-04-02T00:34:03.707Z,62.52
2023-04-02T00:36:48.413Z,62.50
2023-04-02T00:39:32.517Z,62.33
2023-04-02T00:42:23.776Z,62.84
2023-04-02T00:45:39.136Z,62.68
2023-04-02T00:48:57.126Z,62.93
2023-04-02T00:51:29.608Z,62.93
2023-04-02T00:54:02.836Z,62.81
2023-04-02T00:56:37.601Z,62.78
2023-04-02T00:59:22.757Z,62.73
2023-04-02T01:01:55.918Z,62.82
2023-04-02T01:04:35.127Z,62.96
2023-04-02T01:07:10.103Z,62.95
2023-04-02T01:09:54.597Z,62.71
2023-04-02T01:12:41.560Z,62.72
2023-04-02T01:15:19.550Z,63.07
2023-04-02T01:18:10.116Z,62.77
2023-04-02T01:21:06.648Z,63.15
2023-04-02T01:23:50.030Z,62.75
2023-04-02T01:26:34.497Z,62.92
2023-04-02T01:29:10.737Z,62.50
2023-04-02T01:31:40.957Z,62.78
2023-04-02T01:34:13.989Z,62.79
2023-04-02T01:36:51.713Z,62.56
2023-04-02T01:39:32.218Z,62.44
2023-04-02T01:42:20.569Z,62.54
2023-04-02T01:44:52.672Z,62.04
2023-04-02T01:47:25.095Z,61.87
2023-04-02T01:49:58.781Z,62.25
2023-04-02T01:52:36.967Z,62.21
2023-04-02T01:55:06.945Z,61.67
2023-04-02T01:57:36.395Z,61.69
2023-04-02T02:00:13.902Z,62.15
2023-04-02T02:02:44.369Z,62.26
2023-04-02T02:05:17.770Z,61.37
2023-04-02T02:07:47.410Z,61.08
2023-04-02T02:10:18.727Z,61.52
2023-04-02T02:12:49.447Z,61.00
2023-04-02T02:15:22.190Z,61.42
2023-04-02T02:17:52.004Z,61.29
2023-04-02T02:20:21.535Z,60.68
2023-04-02T02:22:53.182Z,60.62
2023-04-02T02:25:24.887Z,60.79
2023-04-02T02:28:07.671Z,60.23
2023-04-02T02:30:44.104Z,59.90
2023-04-02T02:33:19.255Z,59.96
2023-04-02T02:35:54.582Z,60.16
2023-04-02T02:38:40.891Z,59.72
2023-04-02T02:41:17.390Z,59.51
2023-04-02T02:43:59.556Z,59.62
2023-04-02T02:46:31.883Z,59.38
2023-04-02T02:49:04.834Z,58.91
2023-04-02T02:51:44.015Z,59.12
2023-04-02T02:54:13.993Z,59.23
2023-04-02T02:56:47.847Z,58.92
2023-04-02T02:59:18.937Z,58.64
2023-04-02T03:01:49.888Z,58.32
2023-04-02T03:04:23.802Z,58.17
2023-04-02T03:06:55.237Z,57.58
2023-04-02T03:09:36.661Z,57.77
2023-04-02T03:12:15.599Z,57.13
2023-04-02T03:14:50.881Z,57.09
2023-04-02T03:17:26.104Z,56.73
2023-04-02T03:20:01.983Z,56.55
2023-04-02T03:22:37.797Z,56.40
2023-04-02T03:25:19.191Z,55.91
2023-04-02T03:27:52.438Z,55.85
2023-04-02T03:30:30.975Z,55.69
2023-04-02T03:33:06.921Z,55.53
2023-04-02T03:35:39.141Z,55.54
2023-04-02T03:38:14.848Z,55.98
2023-04-02T03:40:47.534Z,55.88
2023-04-02T03:43:23.729Z,55.84
2023-04-02T03:45:57.396Z,55.46
2023-04-02T03:48:32.057Z,55.29
2023-04-02T03:51:08.082Z,54.99
2023-04-02T03:53:37.351Z,54.41
2023-04-02T03:56:08.304Z,54.23
2023-04-02T03:58:43.154Z,54.04
2023-04-02T04:01:26.183Z,53.94
2023-04-02T04:03:59.459Z,53.90
2023-04-02T04:06:31.563Z,53.62
2023-04-02T04:09:07.803Z,53.79
2023-04-02T04:11:39.378Z,53.26
2023-04-02T04:14:11.642Z,52.94
2023-04-02T04:16:47.950Z,52.94
2023-04-02T04:19:25.256Z,52.90
2023-04-02T04:21:58.393Z,52.96
2023-04-02T04:24:29.541Z,52.81
2023-04-02T04:27:04.414Z,52.89
2023-04-02T04:29:41.062Z,52.88
2023-04-02T04:32:21.448Z,52.78
2023-04-02T04:34:54.134Z,52.84
2023-04-02T04:37:33.929Z,52.61
2023-04-02T04:40:13.175Z,52.66
2023-04-02T04:42:45.937Z,52.79
2023-04-02T04:45:33.695Z,52.56
2023-04-02T04:48:07.350Z,52.34
2023-04-02T04:50:48.362Z,52.17
2023-04-02T04:53:19.573Z,51.94
2023-04-02T04:55:54.295Z,51.43
2023-04-02T04:58:27.728Z,51.42
2023-04-02T05:01:04.266Z,51.74
2023-04-02T05:03:38.849Z,51.79
2023-04-02T05:06:17.923Z,51.36
2023-04-02T05:08:51.025Z,51.27
2023-04-02T05:11:28.553Z,51.34
2023-04-02T05:14:03.135Z,50.98
2023-04-02T05:16:38.729Z,51.48
2023-04-02T05:19:13.081Z,50.94
2023-04-02T05:21:49.206Z,50.58
2023-04-02T05:24:43.408Z,50.57
2023-04-02T05:27:23.145Z,50.63
2023-04-02T05:29:57.560Z,50.42
2023-04-02T05:32:30.584Z,49.99
2023-04-02T05:35:00.329Z,50.55
2023-04-02T05:37:32.458Z,50.52
2023-04-02T05:40:14.005Z,50.30
2023-04-02T05:42:49.550Z,49.75
2023-04-02T05:45:27.730Z,50.18
2023-04-02T05:48:02.177Z,50.13
2023-04-02T05:50:37.795Z,49.70
2023-04-02T05:53:12.945Z,49.69
2023-04-02T05:55:50.695Z,49.81
2023-04-02T06:01:12.460Z,49.24
2023-04-02T06:03:49.592Z,49.33
2023-04-02T06:06:29.138Z,49.31
2023-04-02T06:09:06.050Z,49.36
2023-04-02T06:11:42.878Z,48.84
2023-04-02T06:14:14.175Z,48.79
